createdAt,value
2018-12-13T00:00:14.920Z,5.30
2018-12-13T00:02:49.900Z,4.80
2018-12-13T00:05:24.242Z,6.53
2018-12-13T00:07:58.572Z,4.77
2018-12-13T00:10:32.965Z,5.47
2018-12-13T00:13:07.405Z,5.10
2018-12-13T00:15:41.881Z,5.17
2018-12-13T00:18:16.342Z,5.40
2018-12-13T00:20:51.527Z,5.20
2018-12-13T00:23:26.005Z,6.13
2018-12-13T00:26:01.199Z,5.37
2018-12-13T00:28:36.665Z,5.63
2018-12-13T00:31:11.799Z,4.87
2018-12-13T00:33:46.961Z,5.60
2018-12-13T00:36:21.482Z,6.60
2018-12-13T00:38:56.838Z,5.63
2018-12-13T00:41:31.769Z,5.53
2018-12-13T00:44:06.141Z,5.50
2018-12-13T00:46:41.125Z,6.43
2018-12-13T00:49:21.793Z,5.30
2018-12-13T00:51:56.272Z,4.90
2018-12-13T00:54:31.634Z,5.03
2018-12-13T00:57:06.350Z,5.07
2018-12-13T00:59:40.858Z,5.50
2018-12-13T01:02:16.435Z,5.70
2018-12-13T01:04:50.866Z,5.40
2018-12-13T01:07:25.237Z,5.43
2018-12-13T01:09:59.575Z,4.77
2018-12-13T01:12:33.933Z,4.67
2018-12-13T01:15:11.523Z,4.70
2018-12-13T01:17:46.562Z,4.93
2018-12-13T01:20:21.615Z,4.20
2018-12-13T01:22:56.157Z,4.60
2018-12-13T01:25:31.153Z,5.87
2018-12-13T01:28:11.291Z,4.73
2018-12-13T01:30:46.838Z,5.27
2018-12-13T01:33:38.689Z,5.20
2018-12-13T01:36:15.366Z,5.20
2018-12-13T01:38:50.508Z,6.10
2018-12-13T01:41:25.006Z,6.00
2018-12-13T01:43:59.671Z,5.00
2018-12-13T01:46:34.492Z,5.10
2018-12-13T01:49:09.031Z,5.30
2018-12-13T01:51:44.335Z,5.00
2018-12-13T01:54:19.280Z,6.23
2018-12-13T01:56:53.939Z,5.40
2018-12-13T01:59:28.310Z,6.30
2018-12-13T02:02:09.168Z,5.40
2018-12-13T02:04:43.498Z,5.93
2018-12-13T02:07:19.042Z,5.60
2018-12-13T02:09:53.547Z,6.43
2018-12-13T02:12:28.500Z,5.23
2018-12-13T02:15:03.741Z,6.07
2018-12-13T02:17:38.674Z,6.07
2018-12-13T02:20:13.700Z,6.13
2018-12-13T02:22:48.202Z,5.20
2018-12-13T02:25:23.217Z,5.67
2018-12-13T02:27:58.510Z,6.43
2018-12-13T02:30:33.822Z,5.80
2018-12-13T02:33:10.629Z,4.53
2018-12-13T02:35:45.512Z,5.53
2018-12-13T02:38:21.522Z,6.60
2018-12-13T02:40:55.933Z,6.40
2018-12-13T02:43:30.475Z,5.20
2018-12-13T02:46:05.511Z,7.47
2018-12-13T02:48:39.995Z,6.90
2018-12-13T02:51:15.392Z,6.67
2018-12-13T02:53:50.425Z,5.97
2018-12-13T02:56:25.018Z,6.57
2018-12-13T02:58:59.371Z,6.63
2018-12-13T03:01:33.817Z,6.77
2018-12-13T03:04:08.713Z,7.30
2018-12-13T03:06:43.114Z,6.13
2018-12-13T03:09:17.853Z,6.50
2018-12-13T03:11:52.208Z,6.87
2018-12-13T03:14:27.575Z,6.80
2018-12-13T03:17:02.941Z,7.70
2018-12-13T03:19:38.449Z,7.07
2018-12-13T03:22:12.956Z,6.20
2018-12-13T03:24:52.584Z,6.10
2018-12-13T03:27:27.767Z,6.17
2018-12-13T03:30:03.601Z,8.27
2018-12-13T03:32:37.996Z,7.70
2018-12-13T03:35:13.743Z,6.97
2018-12-13T03:37:49.187Z,6.87
2018-12-13T03:40:23.795Z,7.37
2018-12-13T03:42:58.038Z,7.00
2018-12-13T03:45:33.658Z,7.47
2018-12-13T03:48:08.118Z,7.07
2018-12-13T03:50:45.365Z,7.00
2018-12-13T03:53:20.758Z,7.60
2018-12-13T03:55:56.073Z,7.97
2018-12-13T03:58:30.601Z,6.40
2018-12-13T04:01:05.050Z,6.90
2018-12-13T04:03:40.897Z,6.73
2018-12-13T04:06:15.475Z,8.20
2018-12-13T04:08:49.822Z,7.03
2018-12-13T04:11:24.199Z,6.90
2018-12-13T04:13:59.653Z,7.40
2018-12-13T04:16:34.903Z,7.37
2018-12-13T04:19:09.355Z,7.23
2018-12-13T04:21:47.048Z,7.43
2018-12-13T04:24:22.470Z,8.83
2018-12-13T04:26:57.520Z,7.80
2018-12-13T04:29:33.993Z,7.40
2018-12-13T04:32:08.366Z,7.37
2018-12-13T04:34:43.377Z,7.07
2018-12-13T04:37:18.713Z,6.60
2018-12-13T04:39:53.889Z,8.20
2018-12-13T04:42:28.331Z,7.13
2018-12-13T04:45:02.896Z,6.93
2018-12-13T04:47:38.048Z,8.03
2018-12-13T04:50:12.589Z,6.90
2018-12-13T04:52:47.817Z,8.63
2018-12-13T04:55:22.905Z,8.60
2018-12-13T04:57:57.842Z,7.10
2018-12-13T05:00:32.387Z,8.03
2018-12-13T05:03:07.537Z,7.83
2018-12-13T05:05:41.920Z,7.83
2018-12-13T05:08:16.647Z,9.00
2018-12-13T05:10:54.723Z,7.60
2018-12-13T05:13:29.935Z,9.50
2018-12-13T05:16:05.265Z,9.53
2018-12-13T05:18:39.790Z,7.67
2018-12-13T05:21:14.361Z,9.67
2018-12-13T05:23:49.765Z,7.50
2018-12-13T05:26:24.713Z,7.72
2018-12-13T05:28:59.577Z,7.60
2018-12-13T05:31:34.801Z,7.07
2018-12-13T05:34:09.813Z,7.85
2018-12-13T05:36:44.381Z,7.45
2018-12-13T05:39:19.515Z,8.50
2018-12-13T05:41:55.000Z,8.33
2018-12-13T05:44:29.530Z,7.40
2018-12-13T05:47:04.599Z,7.57
2018-12-13T05:49:39.221Z,8.65
2018-12-13T05:52:14.251Z,8.68
2018-12-13T05:54:49.094Z,8.20
2018-12-13T05:57:23.634Z,7.30
2018-12-13T05:59:58.278Z,9.00
2018-12-13T06:02:33.170Z,9.23
2018-12-13T06:05:07.969Z,8.67
2018-12-13T06:07:42.498Z,8.10
2018-12-13T06:10:17.057Z,8.10
2018-12-13T06:12:51.317Z,9.40
2018-12-13T06:15:27.241Z,9.63
2018-12-13T06:18:06.814Z,9.55
2018-12-13T06:20:38.883Z,8.90
2018-12-13T06:23:14.054Z,8.97
2018-12-13T06:25:50.504Z,10.70
2018-12-13T06:28:25.778Z,9.10
2018-12-13T06:31:01.225Z,10.18
2018-12-13T06:33:49.333Z,10.93
2018-12-13T06:36:23.773Z,8.80
2018-12-13T06:38:58.872Z,9.87
2018-12-13T06:41:33.394Z,9.03
2018-12-13T06:44:07.837Z,9.43
2018-12-13T06:46:42.848Z,10.10
2018-12-13T06:49:17.201Z,8.53
2018-12-13T06:51:52.122Z,9.00
2018-12-13T06:54:27.368Z,9.10
2018-12-13T06:57:01.812Z,8.03
2018-12-13T06:59:36.235Z,9.05
2018-12-13T07:02:13.913Z,9.43
2018-12-13T07:04:48.346Z,9.40
2018-12-13T07:07:22.962Z,9.77
2018-12-13T07:09:57.327Z,10.40
2018-12-13T07:12:31.693Z,9.73
2018-12-13T07:15:07.405Z,9.08
2018-12-13T07:17:44.449Z,9.08
2018-12-13T07:20:18.914Z,10.30
2018-12-13T07:22:54.286Z,10.18
2018-12-13T07:25:29.446Z,10.50
2018-12-13T07:28:04.644Z,8.93
2018-12-13T07:30:39.721Z,8.68
2018-12-13T07:33:14.220Z,9.53
2018-12-13T07:35:49.383Z,10.28
2018-12-13T07:38:24.293Z,10.33
2018-12-13T07:40:58.745Z,9.20
2018-12-13T07:43:33.043Z,10.17
2018-12-13T07:46:07.999Z,10.83
2018-12-13T07:48:42.393Z,10.53
2018-12-13T07:51:23.822Z,9.80
2018-12-13T07:54:01.196Z,11.63
2018-12-13T07:56:35.598Z,10.90
2018-12-13T07:59:09.925Z,11.30
2018-12-13T08:01:44.429Z,10.70
2018-12-13T08:04:22.517Z,11.80
2018-12-13T08:06:57.071Z,11.80
2018-12-13T08:09:31.432Z,9.37
2018-12-13T08:12:05.987Z,10.83
2018-12-13T08:14:43.098Z,10.87
2018-12-13T08:17:18.382Z,9.63
2018-12-13T08:19:52.980Z,9.80
2018-12-13T08:22:27.485Z,9.47
2018-12-13T08:25:02.933Z,10.23
2018-12-13T08:27:47.177Z,10.37
2018-12-13T08:30:25.455Z,8.00
2018-12-13T08:33:00.021Z,10.43
2018-12-13T08:35:35.889Z,10.17
2018-12-13T08:38:10.737Z,9.30
2018-12-13T08:40:45.093Z,12.20
2018-12-13T08:43:19.710Z,10.57
2018-12-13T08:45:54.615Z,10.20
2018-12-13T08:48:29.073Z,10.87
2018-12-13T08:51:04.186Z,12.20
2018-12-13T08:53:39.323Z,12.93
2018-12-13T08:56:14.625Z,11.37
2018-12-13T08:58:48.990Z,10.30
2018-12-13T09:01:23.252Z,12.27
2018-12-13T09:03:58.605Z,9.90
2018-12-13T09:06:33.109Z,9.67
2018-12-13T09:09:08.747Z,8.97
2018-12-13T09:11:43.155Z,8.83
2018-12-13T09:14:18.221Z,9.40
2018-12-13T09:16:53.620Z,8.80
2018-12-13T09:19:28.076Z,9.17
2018-12-13T09:22:02.614Z,9.80
2018-12-13T09:24:37.713Z,10.00
2018-12-13T09:27:12.817Z,9.10
2018-12-13T09:29:48.450Z,8.80
2018-12-13T09:32:22.925Z,8.60
2018-12-13T09:34:58.013Z,8.83
2018-12-13T09:37:33.169Z,7.70
2018-12-13T09:40:07.485Z,9.43
2018-12-13T09:42:42.219Z,8.77
2018-12-13T09:45:23.067Z,9.23
2018-12-13T09:47:58.705Z,9.03
2018-12-13T09:50:33.141Z,9.33
2018-12-13T09:53:08.489Z,8.63
2018-12-13T09:55:43.664Z,9.63
2018-12-13T09:58:18.369Z,8.20
2018-12-13T10:00:52.973Z,7.80
2018-12-13T10:03:31.032Z,6.40
2018-12-13T10:06:05.590Z,7.87
2018-12-13T10:08:46.146Z,8.00
2018-12-13T10:11:16.382Z,7.73
2018-12-13T10:13:51.605Z,7.70
2018-12-13T10:16:26.921Z,7.50
2018-12-13T10:19:01.333Z,7.87
2018-12-13T10:21:35.804Z,7.73
2018-12-13T10:24:11.110Z,8.10
2018-12-13T10:26:46.815Z,6.30
2018-12-13T10:29:21.941Z,9.27
2018-12-13T10:31:57.328Z,7.50
2018-12-13T10:34:32.238Z,6.93
2018-12-13T10:37:07.593Z,6.67
2018-12-13T10:39:41.917Z,7.83
2018-12-13T10:42:16.200Z,7.20
2018-12-13T10:44:50.862Z,6.77
2018-12-13T10:47:26.367Z,6.70
2018-12-13T10:50:00.931Z,7.37
2018-12-13T10:52:36.211Z,7.20
2018-12-13T10:55:11.201Z,8.13
2018-12-13T10:57:45.777Z,6.83
2018-12-13T11:00:25.754Z,7.23
2018-12-13T11:03:19.952Z,8.87
2018-12-13T11:05:54.424Z,6.60
2018-12-13T11:08:28.858Z,7.47
2018-12-13T11:11:03.518Z,7.60
2018-12-13T11:13:38.761Z,8.60
2018-12-13T11:16:14.919Z,7.40
2018-12-13T11:18:49.450Z,7.50
2018-12-13T11:21:23.837Z,6.53
2018-12-13T11:23:59.514Z,7.33
2018-12-13T11:26:40.201Z,7.10
2018-12-13T11:29:39.722Z,7.40
2018-12-13T11:32:14.153Z,6.90
2018-12-13T11:34:49.062Z,7.83
2018-12-13T11:37:24.357Z,8.10
2018-12-13T11:39:58.760Z,7.87
2018-12-13T11:42:33.549Z,6.90
2018-12-13T11:45:08.065Z,7.67
2018-12-13T11:47:45.161Z,7.23
2018-12-13T11:50:19.808Z,6.60
2018-12-13T11:52:54.976Z,7.97
2018-12-13T11:55:37.462Z,7.63
2018-12-13T11:58:14.521Z,7.10
2018-12-13T12:00:49.101Z,6.80
2018-12-13T12:03:24.537Z,7.30
2018-12-13T12:05:58.866Z,7.17
2018-12-13T12:08:33.360Z,6.73
2018-12-13T12:11:07.676Z,7.80
2018-12-13T12:13:42.718Z,6.60
2018-12-13T12:16:17.725Z,7.50
2018-12-13T12:18:52.289Z,6.80
2018-12-13T12:21:26.737Z,7.80
2018-12-13T12:24:01.886Z,6.73
2018-12-13T12:26:40.414Z,8.80
2018-12-13T12:29:15.582Z,7.67
2018-12-13T12:31:51.778Z,8.87
2018-12-13T12:34:26.871Z,7.67
2018-12-13T12:37:05.603Z,8.73
2018-12-13T12:39:40.137Z,6.83
2018-12-13T12:42:14.653Z,8.70
2018-12-13T12:44:49.134Z,9.10
2018-12-13T12:47:24.074Z,8.17
2018-12-13T12:49:58.517Z,8.03
2018-12-13T12:52:33.585Z,8.30
2018-12-13T12:55:10.709Z,7.83
2018-12-13T12:57:45.013Z,6.63
2018-12-13T13:00:19.415Z,8.07
2018-12-13T13:02:55.413Z,8.40
2018-12-13T13:05:30.490Z,7.60
2018-12-13T13:08:04.774Z,8.47
2018-12-13T13:10:39.287Z,7.23
2018-12-13T13:13:15.561Z,8.37
2018-12-13T13:15:50.708Z,8.27
2018-12-13T13:18:25.094Z,7.30
2018-12-13T13:20:59.666Z,7.03
2018-12-13T13:23:42.526Z,7.47
2018-12-13T13:26:17.005Z,7.50
2018-12-13T13:28:52.234Z,9.17
2018-12-13T13:31:28.805Z,8.27
2018-12-13T13:34:04.087Z,7.30
2018-12-13T13:36:38.659Z,8.00
2018-12-13T13:39:13.757Z,7.07
2018-12-13T13:41:48.229Z,7.67
2018-12-13T13:44:24.778Z,7.50
2018-12-13T13:46:59.800Z,7.63
2018-12-13T13:49:34.365Z,6.53
2018-12-13T13:52:11.733Z,8.47
2018-12-13T13:54:48.634Z,8.33
2018-12-13T13:57:23.179Z,7.97
2018-12-13T13:59:57.556Z,6.87
2018-12-13T14:02:33.941Z,6.90
2018-12-13T14:05:09.366Z,7.60
2018-12-13T14:07:43.776Z,8.47
2018-12-13T14:10:19.438Z,9.10
2018-12-13T14:12:53.857Z,8.23
2018-12-13T14:15:29.105Z,7.83
2018-12-13T14:18:06.594Z,8.33
2018-12-13T14:20:40.965Z,7.43
2018-12-13T14:23:15.350Z,7.73
2018-12-13T14:25:50.605Z,9.10
2018-12-13T14:28:25.969Z,6.97
2018-12-13T14:31:02.588Z,7.67
2018-12-13T14:33:37.100Z,8.37
2018-12-13T14:36:13.185Z,7.27
2018-12-13T14:38:48.265Z,9.20
2018-12-13T14:41:23.239Z,8.17
2018-12-13T14:43:57.987Z,8.07
2018-12-13T14:46:34.467Z,7.43
2018-12-13T14:49:08.862Z,7.20
2018-12-13T14:51:45.136Z,7.07
2018-12-13T14:54:23.927Z,8.00
2018-12-13T14:56:58.526Z,8.20
2018-12-13T14:59:32.977Z,6.73
2018-12-13T15:02:13.846Z,7.47
2018-12-13T15:04:48.121Z,7.20
2018-12-13T15:07:22.733Z,7.47
2018-12-13T15:09:57.275Z,7.57
2018-12-13T15:12:31.773Z,9.17
2018-12-13T15:15:08.069Z,10.90
2018-12-13T15:17:46.361Z,7.70
2018-12-13T15:20:20.807Z,9.13
2018-12-13T15:22:55.365Z,8.10
2018-12-13T15:25:31.873Z,8.40
2018-12-13T15:28:08.541Z,8.73
2018-12-13T15:30:45.083Z,8.17
2018-12-13T15:33:19.494Z,7.90
2018-12-13T15:35:54.902Z,8.00
2018-12-13T15:38:31.566Z,8.80
2018-12-13T15:41:06.185Z,8.37
2018-12-13T15:43:40.650Z,8.33
2018-12-13T15:46:16.848Z,7.03
2018-12-13T15:48:51.311Z,7.00
2018-12-13T15:51:27.309Z,8.90
2018-12-13T15:54:03.209Z,8.00
2018-12-13T15:56:39.678Z,8.70
2018-12-13T15:59:14.052Z,9.20
2018-12-13T16:01:48.943Z,8.43
2018-12-13T16:04:27.260Z,7.63
2018-12-13T16:07:01.651Z,7.67
2018-12-13T16:09:37.270Z,8.73
2018-12-13T16:12:11.724Z,7.80
2018-12-13T16:14:48.073Z,8.17
2018-12-13T16:17:24.526Z,8.43
2018-12-13T16:19:59.030Z,7.90
2018-12-13T16:22:35.161Z,8.73
2018-12-13T16:25:12.077Z,8.23
2018-12-13T16:27:50.253Z,8.30
2018-12-13T16:30:27.718Z,9.83
2018-12-13T16:33:04.321Z,10.10
2018-12-13T16:35:40.590Z,8.77
2018-12-13T16:38:17.322Z,9.70
2018-12-13T16:40:52.686Z,9.00
2018-12-13T16:43:27.015Z,10.20
2018-12-13T16:46:03.305Z,8.93
2018-12-13T16:48:39.657Z,9.23
2018-12-13T16:51:16.231Z,10.60
2018-12-13T16:54:00.838Z,8.07
2018-12-13T16:56:37.276Z,10.87
2018-12-13T16:59:11.845Z,8.87
2018-12-13T17:01:46.705Z,9.70
2018-12-13T17:04:21.030Z,9.00
2018-12-13T17:06:57.114Z,9.57
2018-12-13T17:09:31.434Z,10.23
2018-12-13T17:12:06.027Z,9.47
2018-12-13T17:14:42.287Z,9.80
2018-12-13T17:17:18.714Z,8.83
2018-12-13T17:19:53.030Z,9.90
2018-12-13T17:22:29.834Z,10.30
2018-12-13T17:25:06.765Z,9.77
2018-12-13T17:27:50.346Z,9.00
2018-12-13T17:30:26.306Z,9.70
2018-12-13T17:33:00.989Z,10.00
2018-12-13T17:35:37.121Z,8.77
2018-12-13T17:38:13.858Z,9.00
2018-12-13T17:40:50.698Z,9.43
2018-12-13T17:43:28.678Z,10.13
2018-12-13T17:46:07.470Z,12.37
2018-12-13T17:48:44.193Z,10.40
2018-12-13T17:51:21.061Z,9.00
2018-12-13T17:53:57.318Z,9.13
2018-12-13T17:56:38.572Z,9.47
2018-12-13T17:59:13.034Z,10.10
2018-12-13T18:01:47.972Z,10.87
2018-12-13T18:04:22.296Z,9.20
2018-12-13T18:06:57.050Z,8.80
2018-12-13T18:09:31.686Z,10.33
2018-12-13T18:12:06.473Z,9.87
2018-12-13T18:14:42.729Z,9.40
2018-12-13T18:17:19.193Z,8.70
2018-12-13T18:19:53.632Z,11.17
2018-12-13T18:22:30.109Z,9.87
2018-12-13T18:25:06.356Z,8.47
2018-12-13T18:27:50.836Z,9.37
2018-12-13T18:30:27.689Z,10.93
2018-12-13T18:33:02.513Z,9.80
2018-12-13T18:35:39.804Z,10.57
2018-12-13T18:38:16.026Z,8.23
2018-12-13T18:40:50.619Z,9.87
2018-12-13T18:43:25.195Z,9.50
2018-12-13T18:46:01.924Z,9.40
2018-12-13T18:48:38.305Z,10.33
2018-12-13T18:51:15.201Z,10.67
2018-12-13T18:53:50.607Z,9.13
2018-12-13T18:56:27.666Z,11.70
2018-12-13T18:59:02.290Z,9.80
2018-12-13T19:01:36.769Z,8.57
2018-12-13T19:04:11.850Z,10.67
2018-12-13T19:06:46.305Z,9.80
2018-12-13T19:09:20.809Z,10.43
2018-12-13T19:11:58.247Z,9.90
2018-12-13T19:14:36.190Z,13.00
2018-12-13T19:17:12.713Z,9.87
2018-12-13T19:19:47.566Z,9.50
2018-12-13T19:22:24.069Z,9.77
2018-12-13T19:25:00.880Z,9.33
2018-12-13T19:30:20.646Z,10.13
2018-12-13T19:32:55.341Z,11.30
2018-12-13T19:35:32.767Z,11.30
2018-12-13T19:38:09.556Z,9.70
2018-12-13T19:40:48.327Z,10.00
2018-12-13T19:43:20.533Z,11.10
2018-12-13T19:45:57.214Z,9.23
2018-12-13T19:48:35.406Z,9.87
2018-12-13T19:51:12.965Z,10.30
2018-12-13T19:53:51.934Z,11.60
2018-12-13T19:56:28.905Z,9.77
2018-12-13T19:59:05.322Z,8.40
2018-12-13T20:01:39.812Z,10.53
2018-12-13T20:04:14.561Z,10.53
2018-12-13T20:06:49.061Z,9.17
2018-12-13T20:09:24.221Z,9.70
2018-12-13T20:11:58.752Z,10.90
2018-12-13T20:14:38.569Z,9.00
2018-12-13T20:17:15.206Z,9.10
2018-12-13T20:19:49.760Z,9.93
2018-12-13T20:22:24.280Z,10.60
2018-12-13T20:25:14.596Z,9.40
2018-12-13T20:27:53.934Z,9.20
2018-12-13T20:30:32.051Z,9.60
2018-12-13T20:33:07.384Z,8.37
2018-12-13T20:35:43.541Z,10.67
2018-12-13T20:38:20.341Z,11.10
2018-12-13T20:41:00.826Z,10.47
2018-12-13T20:43:31.879Z,9.77
2018-12-13T20:46:09.925Z,9.53
2018-12-13T20:48:45.065Z,8.10
2018-12-13T20:51:25.329Z,9.30
2018-12-13T20:53:59.863Z,8.90
2018-12-13T20:56:37.909Z,9.40
2018-12-13T20:59:14.342Z,9.07
2018-12-13T21:01:49.251Z,10.20
2018-12-13T21:04:26.041Z,8.40
2018-12-13T21:07:08.886Z,9.60
2018-12-13T21:09:44.317Z,9.67
2018-12-13T21:12:19.269Z,10.33
2018-12-13T21:14:57.025Z,8.93
2018-12-13T21:17:34.183Z,8.93
2018-12-13T21:20:09.247Z,8.30
2018-12-13T21:22:44.300Z,9.20
2018-12-13T21:25:23.571Z,8.70
2018-12-13T21:28:00.017Z,9.10
2018-12-13T21:30:36.999Z,12.17
2018-12-13T21:33:11.621Z,8.87
2018-12-13T21:35:48.805Z,10.40
2018-12-13T21:38:24.870Z,10.70
2018-12-13T21:40:59.296Z,10.07
2018-12-13T21:43:33.832Z,10.87
2018-12-13T21:46:09.941Z,9.37
2018-12-13T21:48:45.497Z,10.03
2018-12-13T21:51:21.251Z,9.40
2018-12-13T21:53:55.721Z,10.00
2018-12-13T21:56:31.511Z,9.70
2018-12-13T21:59:05.934Z,9.07
2018-12-13T22:01:52.038Z,11.80
2018-12-13T22:04:28.102Z,10.27
2018-12-13T22:07:02.483Z,8.87
2018-12-13T22:09:36.934Z,9.13
2018-12-13T22:12:11.550Z,9.30
2018-12-13T22:14:46.738Z,9.20
2018-12-13T22:17:22.754Z,8.80
2018-12-13T22:19:57.618Z,10.63
2018-12-13T22:22:32.081Z,10.60
2018-12-13T22:25:08.805Z,11.40
2018-12-13T22:27:49.978Z,9.50
2018-12-13T22:30:24.977Z,10.20
2018-12-13T22:32:59.678Z,8.50
2018-12-13T22:35:35.080Z,9.10
2018-12-13T22:38:09.941Z,10.60
2018-12-13T22:40:44.833Z,8.97
2018-12-13T22:43:20.659Z,8.30
2018-12-13T22:45:56.403Z,9.67
2018-12-13T22:48:30.914Z,9.50
2018-12-13T22:51:06.042Z,9.93
2018-12-13T22:53:40.822Z,9.87
2018-12-13T22:56:16.222Z,9.20
2018-12-13T22:58:50.612Z,9.53
2018-12-13T23:01:25.251Z,9.77
2018-12-13T23:04:00.726Z,10.73
2018-12-13T23:06:35.201Z,8.93
2018-12-13T23:09:09.620Z,10.70
2018-12-13T23:11:44.081Z,9.20
2018-12-13T23:14:19.225Z,9.40
2018-12-13T23:16:54.564Z,9.23
2018-12-13T23:19:29.189Z,9.37
2018-12-13T23:22:03.739Z,9.03
2018-12-13T23:24:39.340Z,11.10
2018-12-13T23:27:14.974Z,9.70
2018-12-13T23:29:50.633Z,9.80
2018-12-13T23:32:25.201Z,9.60
2018-12-13T23:35:00.497Z,9.60
2018-12-13T23:37:35.660Z,9.23
2018-12-13T23:40:10.494Z,9.97
2018-12-13T23:42:45.096Z,10.43
2018-12-13T23:45:24.663Z,8.60
2018-12-13T23:48:00.008Z,9.33
2018-12-13T23:50:34.793Z,9.80
2018-12-13T23:53:09.711Z,10.40
2018-12-13T23:55:44.826Z,8.17
2018-12-13T23:58:19.825Z,7.83
